Terminal Aerodrome Forecast
Issued by NWS

Home | Current Version | Previous Version | Text Only | Print | Product List | Glossary On
Versions: 1 2 3 4 5 6 7 8 9 10 11 12 13 14 15 16 17 18 19 20 21 22 23 24 25 26
000
FTUS45 KLKN 271631 AAA
TAFELY
TAF AMD
KELY 271631Z 2717/2812 21010KT P6SM -SHSN BKN090
     FM271800 25012G22KT P6SM -SHSN SCT050 OVC080
     FM280100 27010KT P6SM VCSH BKN060
     FM280600 20007KT P6SM SCT060 BKN090=

USA.gov is the U.S. government's official web portal to all federal, state and local government web resources and services.